Time,TemperatureF,DewpointF,PressureIn,WindDirection,WindDirectionDegrees,WindSpeedMPH,WindSpeedGustMPH,Humidity,HourlyPrecipIn,Conditions,Clouds,dailyrainin,SoftwareType,DateUTC
2013-04-11 00:00:00,19.6,13.8,29.86,SW,225,0.0,0.0,78,0.00,,,0.00,WUHU216HW,2013-04-11 06:00:00,
2013-04-11 00:05:00,19.8,14.0,29.86,SW,225,0.0,0.0,78,0.00,,,0.00,WUHU216HW,2013-04-11 06:05:00,
2013-04-11 00:10:00,20.0,14.1,29.86,SW,225,0.0,0.0,78,0.00,,,0.00,WUHU216HW,2013-04-11 06:10:00,
2013-04-11 00:15:00,20.2,14.3,29.85,SW,225,0.0,0.0,78,0.00,,,0.00,WUHU216HW,2013-04-11 06:15:00,
2013-04-11 00:20:00,20.2,14.3,29.85,SW,225,0.0,0.0,78,0.00,,,0.00,WUHU216HW,2013-04-11 06:20:00,
2013-04-11 00:25:00,20.3,14.5,29.84,West,270,0.0,0.0,78,0.00,,,0.00,WUHU216HW,2013-04-11 06:25:00,
2013-04-11 00:30:00,20.3,14.5,29.84,SSE,158,0.0,0.0,78,0.00,,,0.00,WUHU216HW,2013-04-11 06:30:00,
2013-04-11 00:35:00,20.3,14.5,29.84,ESE,113,0.0,0.0,78,0.00,,,0.00,WUHU216HW,2013-04-11 06:35:00,
2013-04-11 00:40:00,20.3,14.5,29.84,ESE,113,0.0,0.0,78,0.00,,,0.00,WUHU216HW,2013-04-11 06:40:00,
2013-04-11 00:45:00,20.0,14.5,29.84,SW,225,0.0,0.0,79,0.00,,,0.00,WUHU216HW,2013-04-11 06:45:00,
2013-04-11 00:50:00,20.0,14.5,29.84,WSW,248,0.0,0.0,79,0.00,,,0.00,WUHU216HW,2013-04-11 06:50:00,
2013-04-11 00:55:00,20.0,14.1,29.84,SSW,203,0.0,0.0,78,0.00,,,0.00,WUHU216HW,2013-04-11 06:55:00,
2013-04-11 01:00:00,20.0,14.1,29.83,SSW,203,0.0,0.0,78,0.00,,,0.00,WUHU216HW,2013-04-11 07:00:00,
2013-04-11 01:05:00,20.0,14.1,29.83,South,180,0.0,0.0,78,0.00,,,0.00,WUHU216HW,2013-04-11 07:05:00,
2013-04-11 01:10:00,20.0,14.5,29.83,West,270,0.0,0.0,79,0.00,,,0.00,WUHU216HW,2013-04-11 07:10:00,
2013-04-11 01:15:00,20.0,14.1,29.82,SSE,158,0.0,0.0,78,0.00,,,0.00,WUHU216HW,2013-04-11 07:15:00,
2013-04-11 01:20:00,20.2,14.3,29.82,SE,135,0.0,0.0,78,0.00,,,0.00,WUHU216HW,2013-04-11 07:20:00,
2013-04-11 01:25:00,20.3,14.9,29.82,SSW,203,0.0,0.0,79,0.00,,,0.00,WUHU216HW,2013-04-11 07:25:00,
2013-04-11 01:30:00,20.5,14.7,29.81,SE,135,0.0,0.0,78,0.00,,,0.00,WUHU216HW,2013-04-11 07:30:00,
2013-04-11 01:35:00,20.5,15.0,29.81,West,270,0.0,0.0,79,0.00,,,0.00,WUHU216HW,2013-04-11 07:35:00,
2013-04-11 01:40:00,20.7,15.2,29.81,WSW,248,0.0,0.0,79,0.00,,,0.00,WUHU216HW,2013-04-11 07:40:00,
2013-04-11 01:45:00,20.9,15.4,29.81,SSW,203,0.0,0.0,79,0.00,,,0.00,WUHU216HW,2013-04-11 07:45:00,
2013-04-11 01:50:00,20.9,15.0,29.81,WSW,248,0.0,0.0,78,0.00,,,0.00,WUHU216HW,2013-04-11 07:50:00,
2013-04-11 01:55:00,20.9,15.7,29.81,NW,315,0.0,0.0,80,0.00,,,0.00,WUHU216HW,2013-04-11 07:55:00,
2013-04-11 02:00:00,20.9,15.7,29.80,WSW,248,0.0,0.0,80,0.00,,,0.00,WUHU216HW,2013-04-11 08:00:00,
2013-04-11 02:05:00,20.9,15.4,29.80,SSW,203,0.0,0.0,79,0.00,,,0.00,WUHU216HW,2013-04-11 08:05:00,
2013-04-11 02:10:00,20.9,15.4,29.80,WSW,248,0.0,0.0,79,0.00,,,0.00,WUHU216HW,2013-04-11 08:10:00,
2013-04-11 02:15:00,20.7,15.2,29.80,NW,315,0.0,0.0,79,0.00,,,0.00,WUHU216HW,2013-04-11 08:15:00,
2013-04-11 02:20:00,20.9,15.4,29.79,ESE,113,0.0,0.0,79,0.00,,,0.00,WUHU216HW,2013-04-11 08:20:00,
2013-04-11 02:25:00,20.9,15.4,29.79,ENE,68,0.0,0.0,79,0.00,,,0.00,WUHU216HW,2013-04-11 08:25:00,
2013-04-11 02:30:00,20.7,15.2,29.79,SE,135,0.0,0.0,79,0.00,,,0.00,WUHU216HW,2013-04-11 08:30:00,
2013-04-11 02:35:00,20.9,16.2,29.79,North,0,0.0,0.0,82,0.00,,,0.00,WUHU216HW,2013-04-11 08:35:00,
2013-04-11 02:40:00,21.1,15.8,29.78,SSE,158,0.0,0.0,80,0.00,,,0.00,WUHU216HW,2013-04-11 08:40:00,
2013-04-11 02:45:00,21.2,16.0,29.78,NW,315,0.0,0.0,80,0.00,,,0.00,WUHU216HW,2013-04-11 08:45:00,
2013-04-11 02:50:00,21.4,16.2,29.77,ESE,113,0.0,0.0,80,0.00,,,0.00,WUHU216HW,2013-04-11 08:50:00,
2013-04-11 02:55:00,21.4,16.2,29.77,SSW,203,0.0,0.0,80,0.00,,,0.00,WUHU216HW,2013-04-11 08:55:00,
2013-04-11 03:00:00,21.8,16.6,29.77,ESE,113,0.0,0.0,80,0.00,,,0.00,WUHU216HW,2013-04-11 09:00:00,
2013-04-11 03:05:00,22.0,16.7,29.77,ESE,113,0.0,0.0,80,0.00,,,0.00,WUHU216HW,2013-04-11 09:05:00,
2013-04-11 03:10:00,22.0,16.7,29.78,NE,45,0.0,0.0,80,0.00,,,0.00,WUHU216HW,2013-04-11 09:10:00,
2013-04-11 03:15:00,22.0,16.7,29.77,SE,135,0.0,0.0,80,0.00,,,0.00,WUHU216HW,2013-04-11 09:15:00,
2013-04-11 03:20:00,22.1,17.2,29.77,NE,45,0.0,0.0,81,0.00,,,0.00,WUHU216HW,2013-04-11 09:20:00,
2013-04-11 03:25:00,22.0,16.7,29.76,SE,135,0.0,0.0,80,0.00,,,0.00,WUHU216HW,2013-04-11 09:25:00,
2013-04-11 03:30:00,22.0,16.7,29.76,SSW,203,0.0,0.0,80,0.00,,,0.00,WUHU216HW,2013-04-11 09:30:00,
2013-04-11 03:35:00,22.3,17.4,29.76,NW,315,0.0,0.0,81,0.00,,,0.00,WUHU216HW,2013-04-11 09:35:00,
2013-04-11 03:40:00,22.5,17.3,29.75,North,0,0.0,0.0,80,0.00,,,0.00,WUHU216HW,2013-04-11 09:40:00,
2013-04-11 03:45:00,22.7,17.5,29.75,NW,315,0.0,0.0,80,0.00,,,0.00,WUHU216HW,2013-04-11 09:45:00,
2013-04-11 03:50:00,22.9,17.9,29.75,ESE,113,0.0,0.0,81,0.00,,,0.00,WUHU216HW,2013-04-11 09:50:00,
2013-04-11 03:55:00,22.3,17.1,29.75,NNE,23,0.0,0.0,80,0.00,,,0.00,WUHU216HW,2013-04-11 09:55:00,
2013-04-11 04:00:00,22.1,16.9,29.75,ESE,113,0.0,0.0,80,0.00,,,0.00,WUHU216HW,2013-04-11 10:00:00,
2013-04-11 04:05:00,22.1,17.2,29.74,SSW,203,0.0,0.0,81,0.00,,,0.00,WUHU216HW,2013-04-11 10:05:00,
2013-04-11 04:10:00,22.3,17.1,29.75,ESE,113,0.0,0.0,80,0.00,,,0.00,WUHU216HW,2013-04-11 10:10:00,
2013-04-11 04:15:00,22.5,17.3,29.75,ESE,113,0.0,0.0,80,0.00,,,0.00,WUHU216HW,2013-04-11 10:15:00,
2013-04-11 04:20:00,22.3,17.4,29.75,North,0,0.0,0.0,81,0.00,,,0.00,WUHU216HW,2013-04-11 10:20:00,
2013-04-11 04:25:00,21.8,16.8,29.75,NW,315,0.0,0.0,81,0.00,,,0.00,WUHU216HW,2013-04-11 10:25:00,
2013-04-11 04:30:00,21.6,16.4,29.75,WNW,293,0.0,0.0,80,0.00,,,0.00,WUHU216HW,2013-04-11 10:30:00,
2013-04-11 04:35:00,21.4,16.5,29.75,North,0,0.0,0.0,81,0.00,,,0.00,WUHU216HW,2013-04-11 10:35:00,
2013-04-11 04:40:00,21.2,16.0,29.75,NE,45,0.0,0.0,80,0.00,,,0.00,WUHU216HW,2013-04-11 10:40:00,
2013-04-11 04:45:00,21.1,15.8,29.75,East,90,0.0,0.0,80,0.00,,,0.00,WUHU216HW,2013-04-11 10:45:00,
2013-04-11 04:50:00,20.9,15.7,29.74,NNW,338,0.0,0.0,80,0.00,,,0.00,WUHU216HW,2013-04-11 10:50:00,
2013-04-11 04:55:00,21.1,16.1,29.74,SSW,203,0.0,0.0,81,0.00,,,0.00,WUHU216HW,2013-04-11 10:55:00,
2013-04-11 05:00:00,21.1,16.1,29.74,ESE,113,0.0,0.0,81,0.00,,,0.00,WUHU216HW,2013-04-11 11:00:00,
2013-04-11 05:05:00,21.2,16.6,29.74,NNE,23,0.0,0.0,82,0.00,,,0.00,WUHU216HW,2013-04-11 11:05:00,
2013-04-11 05:10:00,21.4,16.5,29.74,SSE,158,0.0,0.0,81,0.00,,,0.00,WUHU216HW,2013-04-11 11:10:00,
2013-04-11 05:15:00,21.8,17.1,29.73,SSW,203,0.0,0.0,82,0.00,,,0.00,WUHU216HW,2013-04-11 11:15:00,
2013-04-11 05:20:00,22.0,17.3,29.73,East,90,0.0,0.0,82,0.00,,,0.00,WUHU216HW,2013-04-11 11:20:00,
2013-04-11 05:25:00,22.0,17.6,29.74,SW,225,0.0,0.0,83,0.00,,,0.00,WUHU216HW,2013-04-11 11:25:00,
2013-04-11 05:30:00,22.3,17.6,29.74,WSW,248,0.0,0.0,82,0.00,,,0.00,WUHU216HW,2013-04-11 11:30:00,
2013-04-11 05:35:00,22.7,18.5,29.74,NE,45,0.0,0.0,84,0.00,,,0.00,WUHU216HW,2013-04-11 11:35:00,
2013-04-11 05:40:00,22.7,18.0,29.73,WSW,248,0.0,0.0,82,0.00,,,0.00,WUHU216HW,2013-04-11 11:40:00,
2013-04-11 05:45:00,22.5,17.8,29.74,WSW,248,0.0,0.0,82,0.00,,,0.00,WUHU216HW,2013-04-11 11:45:00,
2013-04-11 05:50:00,22.9,18.2,29.74,South,180,0.0,0.0,82,0.00,,,0.00,WUHU216HW,2013-04-11 11:50:00,
2013-04-11 05:55:00,23.4,18.7,29.74,SSW,203,0.0,0.0,82,0.00,,,0.00,WUHU216HW,2013-04-11 11:55:00,
2013-04-11 06:00:00,24.8,20.4,29.74,WSW,248,0.0,0.0,83,0.00,,,0.00,WUHU216HW,2013-04-11 12:00:00,
2013-04-11 06:05:00,26.5,22.2,29.73,WSW,248,0.0,0.0,84,0.00,,,0.00,WUHU216HW,2013-04-11 12:05:00,
2013-04-11 06:10:00,27.2,22.7,29.73,South,180,0.0,0.0,83,0.00,,,0.00,WUHU216HW,2013-04-11 12:10:00,
2013-04-11 06:15:00,27.7,23.2,29.74,SE,135,0.0,0.0,83,0.00,,,0.00,WUHU216HW,2013-04-11 12:15:00,
2013-04-11 06:20:00,28.3,23.8,29.74,SE,135,0.0,0.0,83,0.00,,,0.00,WUHU216HW,2013-04-11 12:20:00,
2013-04-11 06:25:00,28.6,23.8,29.74,South,180,0.0,0.0,82,0.00,,,0.00,WUHU216HW,2013-04-11 12:25:00,
2013-04-11 06:30:00,29.2,24.0,29.74,SW,225,0.0,0.0,81,0.00,,,0.00,WUHU216HW,2013-04-11 12:30:00,
2013-04-11 06:35:00,29.7,24.6,29.74,WSW,248,0.0,0.0,81,0.00,,,0.00,WUHU216HW,2013-04-11 12:35:00,
2013-04-11 06:40:00,29.7,24.3,29.74,South,180,0.0,0.0,80,0.00,,,0.00,WUHU216HW,2013-04-11 12:40:00,
2013-04-11 06:45:00,29.7,24.3,29.74,SSW,203,0.0,0.0,80,0.00,,,0.00,WUHU216HW,2013-04-11 12:45:00,
2013-04-11 06:50:00,29.9,24.5,29.74,West,270,0.0,0.0,80,0.00,,,0.00,WUHU216HW,2013-04-11 12:50:00,
2013-04-11 06:55:00,30.4,24.7,29.74,NW,315,0.0,0.0,79,0.00,,,0.00,WUHU216HW,2013-04-11 12:55:00,
2013-04-11 07:00:00,31.3,25.3,29.74,WSW,248,0.0,0.0,78,0.00,,,0.00,WUHU216HW,2013-04-11 13:00:00,
2013-04-11 07:05:00,31.7,25.7,29.75,SSW,203,0.0,0.0,78,0.00,,,0.00,WUHU216HW,2013-04-11 13:05:00,
2013-04-11 07:10:00,32.0,25.4,29.75,WNW,293,0.0,0.0,76,0.00,,,0.00,WUHU216HW,2013-04-11 13:10:00,
2013-04-11 07:15:00,32.8,25.7,29.75,West,270,0.0,0.0,75,0.00,,,0.00,WUHU216HW,2013-04-11 13:15:00,
2013-04-11 07:20:00,33.7,25.2,29.75,SW,225,0.0,0.0,71,0.00,,,0.00,WUHU216HW,2013-04-11 13:20:00,
2013-04-11 07:25:00,34.2,26.4,29.75,WNW,293,0.0,0.0,73,0.00,,,0.00,WUHU216HW,2013-04-11 13:25:00,
2013-04-11 07:30:00,34.2,26.4,29.75,West,270,0.0,0.0,73,0.00,,,0.00,WUHU216HW,2013-04-11 13:30:00,
2013-04-11 07:35:00,34.7,26.6,29.75,SSE,158,0.0,0.0,72,0.00,,,0.00,WUHU216HW,2013-04-11 13:35:00,
2013-04-11 07:40:00,34.9,27.1,29.76,ESE,113,0.0,0.0,73,0.00,,,0.00,WUHU216HW,2013-04-11 13:40:00,
2013-04-11 07:45:00,35.6,27.8,29.76,SSE,158,0.0,0.0,73,0.00,,,0.00,WUHU216HW,2013-04-11 13:45:00,
2013-04-11 07:50:00,35.8,28.0,29.76,West,270,0.0,0.0,73,0.00,,,0.00,WUHU216HW,2013-04-11 13:50:00,
2013-04-11 07:55:00,36.4,28.5,29.76,SSW,203,0.0,0.0,73,0.00,,,0.00,WUHU216HW,2013-04-11 13:55:00,
2013-04-11 08:00:00,37.4,29.9,29.76,NW,315,0.0,0.0,74,0.00,,,0.00,WUHU216HW,2013-04-11 14:00:00,
2013-04-11 08:05:00,38.2,30.6,29.76,SSW,203,3.4,3.4,74,0.00,,,0.00,WUHU216HW,2013-04-11 14:05:00,
2013-04-11 08:10:00,40.1,30.0,29.76,NE,45,1.6,3.4,67,0.00,,,0.00,WUHU216HW,2013-04-11 14:10:00,
2013-04-11 08:15:00,41.4,30.5,29.76,NE,45,3.4,3.4,65,0.00,,,0.00,WUHU216HW,2013-04-11 14:15:00,
2013-04-11 08:20:00,42.8,30.7,29.76,North,0,1.8,3.4,62,0.00,,,0.00,WUHU216HW,2013-04-11 14:20:00,
2013-04-11 08:25:00,43.9,28.3,29.76,NW,315,6.3,6.3,54,0.00,,,0.00,WUHU216HW,2013-04-11 14:25:00,
2013-04-11 08:30:00,44.6,29.9,29.76,North,0,0.4,6.3,56,0.00,,,0.00,WUHU216HW,2013-04-11 14:30:00,
2013-04-11 08:35:00,45.2,29.0,29.76,WNW,293,4.3,10.1,53,0.00,,,0.00,WUHU216HW,2013-04-11 14:35:00,
2013-04-11 08:40:00,45.7,28.2,29.76,West,270,2.5,10.1,50,0.00,,,0.00,WUHU216HW,2013-04-11 14:40:00,
2013-04-11 08:45:00,46.4,28.8,29.76,West,270,9.4,9.4,50,0.00,,,0.00,WUHU216HW,2013-04-11 14:45:00,
2013-04-11 08:50:00,46.4,28.3,29.76,South,180,2.9,9.4,49,0.01,,,0.00,WUHU216HW,2013-04-11 14:50:00,
2013-04-11 08:55:00,46.4,26.6,29.76,WSW,248,4.9,11.4,46,0.01,,,0.01,WUHU216HW,2013-04-11 14:55:00,
2013-04-11 09:00:00,45.7,26.6,29.76,WSW,248,6.7,11.4,47,0.01,,,0.01,WUHU216HW,2013-04-11 15:00:00,
2013-04-11 09:05:00,45.2,26.6,29.76,SW,225,2.5,7.4,48,0.01,,,0.01,WUHU216HW,2013-04-11 15:05:00,
2013-04-11 09:10:00,44.8,25.2,29.76,WSW,248,3.4,15.7,46,0.01,,,0.01,WUHU216HW,2013-04-11 15:10:00,
2013-04-11 09:15:00,45.2,27.1,29.76,WSW,248,3.6,15.7,49,0.01,,,0.01,WUHU216HW,2013-04-11 15:15:00,
2013-04-11 09:20:00,45.4,25.7,29.76,SW,225,8.1,8.1,46,0.01,,,0.01,WUHU216HW,2013-04-11 15:20:00,
2013-04-11 09:25:00,45.4,26.2,29.76,WSW,248,5.8,8.1,47,0.01,,,0.01,WUHU216HW,2013-04-11 15:25:00,
2013-04-11 09:30:00,45.0,24.9,29.76,NW,315,10.3,10.3,45,0.01,,,0.01,WUHU216HW,2013-04-11 15:30:00,
2013-04-11 09:35:00,45.0,26.5,29.77,SSE,158,3.4,10.3,48,0.02,,,0.02,WUHU216HW,2013-04-11 15:35:00,
2013-04-11 09:40:00,45.0,27.0,29.76,SSE,158,2.9,4.5,49,0.02,,,0.02,WUHU216HW,2013-04-11 15:40:00,
2013-04-11 09:45:00,45.0,28.0,29.77,SSW,203,4.7,4.7,51,0.02,,,0.02,WUHU216HW,2013-04-11 15:45:00,
2013-04-11 09:50:00,45.2,28.1,29.77,WSW,248,3.6,4.7,51,0.01,,,0.02,WUHU216HW,2013-04-11 15:50:00,
2013-04-11 09:55:00,45.4,28.3,29.77,South,180,5.1,5.1,51,0.01,,,0.02,WUHU216HW,2013-04-11 15:55:00,
2013-04-11 10:00:00,45.5,28.9,29.77,SSE,158,1.8,5.1,52,0.01,,,0.02,WUHU216HW,2013-04-11 16:00:00,
2013-04-11 10:05:00,45.7,29.5,29.77,SSW,203,2.5,3.1,53,0.01,,,0.02,WUHU216HW,2013-04-11 16:05:00,
2013-04-11 10:10:00,46.1,29.3,29.77,SSE,158,2.0,2.5,52,0.01,,,0.02,WUHU216HW,2013-04-11 16:10:00,
2013-04-11 10:15:00,46.3,29.5,29.78,ENE,68,0.4,2.0,52,0.02,,,0.02,WUHU216HW,2013-04-11 16:15:00,
2013-04-11 10:20:00,46.4,29.7,29.78,SE,135,0.0,1.6,52,0.02,,,0.03,WUHU216HW,2013-04-11 16:20:00,
2013-04-11 10:25:00,46.6,30.3,29.78,WSW,248,2.5,2.5,53,0.02,,,0.03,WUHU216HW,2013-04-11 16:25:00,
2013-04-11 10:30:00,46.8,27.6,29.79,WSW,248,4.5,6.9,47,0.02,,,0.03,WUHU216HW,2013-04-11 16:30:00,
2013-04-11 10:35:00,47.2,29.4,29.79,West,270,3.1,6.9,50,0.01,,,0.03,WUHU216HW,2013-04-11 16:35:00,
2013-04-11 10:40:00,47.3,29.1,29.79,WSW,248,1.3,4.0,49,0.01,,,0.03,WUHU216HW,2013-04-11 16:40:00,
2013-04-11 10:45:00,47.5,27.6,29.79,West,270,2.2,4.3,46,0.01,,,0.03,WUHU216HW,2013-04-11 16:45:00,
2013-04-11 10:50:00,47.7,28.9,29.79,East,90,1.3,4.3,48,0.01,,,0.03,WUHU216HW,2013-04-11 16:50:00,
2013-04-11 10:55:00,47.9,29.0,29.79,ESE,113,0.7,1.8,48,0.01,,,0.03,WUHU216HW,2013-04-11 16:55:00,
2013-04-11 11:00:00,47.9,28.4,29.79,WSW,248,2.5,2.7,47,0.01,,,0.03,WUHU216HW,2013-04-11 17:00:00,
2013-04-11 11:05:00,48.1,28.1,29.80,SW,225,2.0,2.9,46,0.02,,,0.04,WUHU216HW,2013-04-11 17:05:00,
2013-04-11 11:10:00,48.2,28.3,29.80,WSW,248,2.5,3.4,46,0.02,,,0.04,WUHU216HW,2013-04-11 17:10:00,
2013-04-11 11:15:00,48.6,29.7,29.80,SSW,203,0.4,3.4,48,0.01,,,0.04,WUHU216HW,2013-04-11 17:15:00,
2013-04-11 11:20:00,48.8,29.9,29.80,North,0,0.4,2.5,48,0.01,,,0.04,WUHU216HW,2013-04-11 17:20:00,
2013-04-11 11:25:00,49.5,30.6,29.80,SSW,203,3.4,4.9,48,0.01,,,0.04,WUHU216HW,2013-04-11 17:25:00,
2013-04-11 11:30:00,50.6,30.5,29.80,West,270,2.7,4.9,46,0.01,,,0.04,WUHU216HW,2013-04-11 17:30:00,
2013-04-11 11:35:00,51.1,29.9,29.80,SSW,203,5.8,5.8,44,0.01,,,0.04,WUHU216HW,2013-04-11 17:35:00,
2013-04-11 11:40:00,50.9,29.7,29.80,NNE,23,0.7,5.8,44,0.01,,,0.04,WUHU216HW,2013-04-11 17:40:00,
2013-04-11 11:45:00,50.0,28.4,29.80,WNW,293,3.4,5.8,43,0.01,,,0.04,WUHU216HW,2013-04-11 17:45:00,
2013-04-11 11:50:00,49.0,29.0,29.80,NW,315,3.8,6.5,46,0.01,,,0.04,WUHU216HW,2013-04-11 17:50:00,
2013-04-11 11:55:00,49.3,30.4,29.80,NNE,23,2.9,6.5,48,0.01,,,0.04,WUHU216HW,2013-04-11 17:55:00,
2013-04-11 12:00:00,50.0,31.2,29.80,ENE,68,1.3,3.4,48,0.00,,,0.04,WUHU216HW,2013-04-11 18:00:00,
2013-04-11 12:05:00,50.8,31.8,29.80,ENE,68,1.8,2.2,48,0.00,,,0.04,WUHU216HW,2013-04-11 18:05:00,
2013-04-11 12:10:00,51.7,30.9,29.80,West,270,2.2,2.7,45,0.00,,,0.04,WUHU216HW,2013-04-11 18:10:00,
2013-04-11 12:15:00,52.2,32.0,29.80,SSE,158,6.0,6.0,46,0.00,,,0.04,WUHU216HW,2013-04-11 18:15:00,
2013-04-11 12:20:00,52.7,33.6,29.81,South,180,6.3,6.3,48,0.00,,,0.04,WUHU216HW,2013-04-11 18:20:00,
2013-04-11 12:25:00,52.7,32.9,29.80,NNE,23,2.2,6.3,47,0.00,,,0.04,WUHU216HW,2013-04-11 18:25:00,
2013-04-11 12:30:00,52.4,30.4,29.81,North,0,0.9,8.3,43,0.00,,,0.04,WUHU216HW,2013-04-11 18:30:00,
2013-04-11 12:35:00,52.4,30.4,29.81,SSE,158,4.7,8.3,43,0.00,,,0.04,WUHU216HW,2013-04-11 18:35:00,
2013-04-11 12:40:00,52.7,32.9,29.81,SE,135,6.9,6.9,47,0.00,,,0.04,WUHU216HW,2013-04-11 18:40:00,
2013-04-11 12:45:00,52.2,31.4,29.81,East,90,4.0,6.9,45,0.00,,,0.04,WUHU216HW,2013-04-11 18:45:00,
2013-04-11 12:50:00,51.5,29.1,29.81,NNE,23,3.1,4.5,42,0.00,,,0.04,WUHU216HW,2013-04-11 18:50:00,
2013-04-11 12:55:00,50.9,30.2,29.81,SW,225,2.0,4.7,45,0.00,,,0.04,WUHU216HW,2013-04-11 18:55:00,
2013-04-11 13:00:00,51.5,31.3,29.81,ESE,113,1.6,4.7,46,0.00,,,0.04,WUHU216HW,2013-04-11 19:00:00,
2013-04-11 13:05:00,51.7,31.4,29.81,SSW,203,4.0,4.0,46,0.00,,,0.04,WUHU216HW,2013-04-11 19:05:00,
2013-04-11 13:10:00,51.8,31.6,29.81,ESE,113,0.4,8.3,46,0.00,,,0.04,WUHU216HW,2013-04-11 19:10:00,
2013-04-11 13:15:00,51.7,31.4,29.81,East,90,1.1,8.3,46,0.00,,,0.04,WUHU216HW,2013-04-11 19:15:00,
2013-04-11 13:20:00,51.5,31.9,29.82,South,180,2.9,3.1,47,0.00,,,0.04,WUHU216HW,2013-04-11 19:20:00,
2013-04-11 13:25:00,51.3,31.7,29.82,WSW,248,1.1,4.9,47,0.00,,,0.04,WUHU216HW,2013-04-11 19:25:00,
2013-04-11 13:30:00,51.8,32.8,29.82,NE,45,1.3,4.9,48,0.00,,,0.04,WUHU216HW,2013-04-11 19:30:00,
2013-04-11 13:35:00,52.6,32.9,29.82,WSW,248,2.2,2.5,47,0.00,,,0.04,WUHU216HW,2013-04-11 19:35:00,
2013-04-11 13:40:00,52.6,32.9,29.81,West,270,0.4,2.2,47,0.00,,,0.04,WUHU216HW,2013-04-11 19:40:00,
2013-04-11 13:45:00,52.9,33.7,29.81,ESE,113,2.5,2.5,48,0.00,,,0.04,WUHU216HW,2013-04-11 19:45:00,
2013-04-11 13:50:00,52.9,32.6,29.81,South,180,3.4,3.4,46,0.00,,,0.04,WUHU216HW,2013-04-11 19:50:00,
2013-04-11 13:55:00,53.3,34.0,29.81,NNW,338,0.4,3.4,48,0.00,,,0.04,WUHU216HW,2013-04-11 19:55:00,
2013-04-11 14:00:00,53.3,31.8,29.81,ENE,68,6.0,6.0,44,0.00,,,0.04,WUHU216HW,2013-04-11 20:00:00,
2013-04-11 14:05:00,52.4,31.5,29.81,ESE,113,2.0,6.9,45,0.00,,,0.04,WUHU216HW,2013-04-11 20:05:00,
2013-04-11 14:10:00,51.7,30.3,29.81,ESE,113,2.5,6.9,44,0.00,,,0.04,WUHU216HW,2013-04-11 20:10:00,
2013-04-11 14:15:00,50.9,30.2,29.81,SSW,203,0.4,4.7,45,0.00,,,0.04,WUHU216HW,2013-04-11 20:15:00,
2013-04-11 14:20:00,50.8,30.6,29.82,North,0,0.9,4.7,46,0.00,,,0.04,WUHU216HW,2013-04-11 20:20:00,
2013-04-11 14:25:00,50.8,30.1,29.82,ESE,113,3.8,3.8,45,0.00,,,0.04,WUHU216HW,2013-04-11 20:25:00,
2013-04-11 14:30:00,51.1,31.0,29.82,SE,135,1.8,4.0,46,0.00,,,0.04,WUHU216HW,2013-04-11 20:30:00,
2013-04-11 14:35:00,51.8,31.6,29.82,East,90,2.7,4.0,46,0.00,,,0.04,WUHU216HW,2013-04-11 20:35:00,
2013-04-11 14:40:00,50.8,32.3,29.82,ENE,68,2.5,5.8,49,0.00,,,0.04,WUHU216HW,2013-04-11 20:40:00,
2013-04-11 14:45:00,50.6,32.1,29.82,North,0,0.7,6.5,49,0.00,,,0.04,WUHU216HW,2013-04-11 20:45:00,
2013-04-11 14:50:00,50.8,32.3,29.81,NE,45,2.5,6.5,49,0.00,,,0.04,WUHU216HW,2013-04-11 20:50:00,
2013-04-11 14:55:00,51.1,32.0,29.81,NW,315,2.7,6.3,48,0.00,,,0.04,WUHU216HW,2013-04-11 20:55:00,
2013-04-11 15:00:00,51.5,32.4,29.82,ESE,113,1.1,6.3,48,0.00,,,0.04,WUHU216HW,2013-04-11 21:00:00,
2013-04-11 15:05:00,51.8,32.1,29.81,WSW,248,0.9,5.1,47,0.00,,,0.04,WUHU216HW,2013-04-11 21:05:00,
2013-04-11 15:10:00,52.2,33.6,29.81,South,180,4.9,6.3,49,0.00,,,0.04,WUHU216HW,2013-04-11 21:10:00,
2013-04-11 15:15:00,52.2,33.6,29.81,SSW,203,2.5,6.3,49,0.00,,,0.04,WUHU216HW,2013-04-11 21:15:00,
2013-04-11 15:20:00,51.8,32.1,29.81,SW,225,1.1,5.8,47,0.00,,,0.04,WUHU216HW,2013-04-11 21:20:00,
2013-04-11 15:25:00,51.7,32.1,29.81,ESE,113,1.3,4.0,47,0.00,,,0.04,WUHU216HW,2013-04-11 21:25:00,
2013-04-11 15:30:00,51.7,33.1,29.81,SSE,158,1.8,4.0,49,0.00,,,0.04,WUHU216HW,2013-04-11 21:30:00,
2013-04-11 15:35:00,51.1,32.0,29.82,NE,45,2.7,3.6,48,0.00,,,0.04,WUHU216HW,2013-04-11 21:35:00,
2013-04-11 15:40:00,50.9,32.5,29.82,SE,135,1.8,4.0,49,0.00,,,0.04,WUHU216HW,2013-04-11 21:40:00,
2013-04-11 15:45:00,50.8,32.3,29.82,ENE,68,3.1,4.0,49,0.00,,,0.04,WUHU216HW,2013-04-11 21:45:00,
2013-04-11 15:50:00,50.4,32.6,29.82,SE,135,1.6,3.1,50,0.00,,,0.04,WUHU216HW,2013-04-11 21:50:00,
2013-04-11 15:55:00,50.0,32.7,29.82,NNE,23,0.7,3.8,51,0.00,,,0.04,WUHU216HW,2013-04-11 21:55:00,
2013-04-11 16:00:00,50.0,33.1,29.82,SE,135,1.3,3.8,52,0.00,,,0.04,WUHU216HW,2013-04-11 22:00:00,
2013-04-11 16:05:00,50.2,33.3,29.82,ESE,113,1.6,3.4,52,0.00,,,0.04,WUHU216HW,2013-04-11 22:05:00,
2013-04-11 16:10:00,50.2,33.3,29.82,South,180,1.3,3.4,52,0.00,,,0.04,WUHU216HW,2013-04-11 22:10:00,
2013-04-11 16:15:00,50.4,33.5,29.82,SSE,158,4.5,4.5,52,0.00,,,0.04,WUHU216HW,2013-04-11 22:15:00,
2013-04-11 16:20:00,50.2,32.9,29.82,ESE,113,2.7,4.5,51,0.00,,,0.04,WUHU216HW,2013-04-11 22:20:00,
2013-04-11 16:25:00,49.7,32.3,29.82,SE,135,2.7,4.5,51,0.00,,,0.04,WUHU216HW,2013-04-11 22:25:00,
2013-04-11 16:30:00,50.0,33.1,29.82,WSW,248,1.1,3.4,52,0.00,,,0.04,WUHU216HW,2013-04-11 22:30:00,
2013-04-11 16:35:00,50.2,33.3,29.82,NW,315,1.3,3.4,52,0.00,,,0.04,WUHU216HW,2013-04-11 22:35:00,
2013-04-11 16:40:00,50.2,33.3,29.83,SE,135,1.3,4.7,52,0.00,,,0.04,WUHU216HW,2013-04-11 22:40:00,
2013-04-11 16:45:00,50.0,32.7,29.83,NE,45,3.6,4.7,51,0.00,,,0.04,WUHU216HW,2013-04-11 22:45:00,
2013-04-11 16:50:00,49.9,32.5,29.83,South,180,1.8,4.7,51,0.00,,,0.04,WUHU216HW,2013-04-11 22:50:00,
2013-04-11 16:55:00,49.9,32.9,29.83,West,270,0.4,4.7,52,0.00,,,0.04,WUHU216HW,2013-04-11 22:55:00,
2013-04-11 17:00:00,50.0,33.6,29.83,South,180,1.8,2.5,53,0.00,,,0.04,WUHU216HW,2013-04-11 23:00:00,
2013-04-11 17:05:00,50.0,33.6,29.83,South,180,1.1,3.1,53,0.00,,,0.04,WUHU216HW,2013-04-11 23:05:00,
2013-04-11 17:10:00,50.0,33.6,29.83,SW,225,1.8,3.1,53,0.00,,,0.04,WUHU216HW,2013-04-11 23:10:00,
2013-04-11 17:15:00,50.0,32.7,29.83,ESE,113,1.1,3.1,51,0.00,,,0.04,WUHU216HW,2013-04-11 23:15:00,
2013-04-11 17:20:00,50.0,33.1,29.83,SSW,203,4.0,4.0,52,0.00,,,0.04,WUHU216HW,2013-04-11 23:20:00,
2013-04-11 17:25:00,50.0,33.1,29.84,East,90,2.7,4.0,52,0.00,,,0.04,WUHU216HW,2013-04-11 23:25:00,
2013-04-11 17:30:00,49.7,32.8,29.84,SSE,158,0.7,3.1,52,0.00,,,0.04,WUHU216HW,2013-04-11 23:30:00,
2013-04-11 17:35:00,49.1,33.1,29.84,NW,315,1.1,3.1,54,0.00,,,0.04,WUHU216HW,2013-04-11 23:35:00,
2013-04-11 17:40:00,48.6,33.1,29.84,East,90,1.8,2.9,55,0.00,,,0.04,WUHU216HW,2013-04-11 23:40:00,
2013-04-11 17:45:00,48.2,33.2,29.85,ESE,113,0.9,3.6,56,0.00,,,0.04,WUHU216HW,2013-04-11 23:45:00,
2013-04-11 17:50:00,47.7,33.7,29.84,East,90,1.1,5.4,58,0.00,,,0.04,WUHU216HW,2013-04-11 23:50:00,
2013-04-11 17:55:00,47.3,33.8,29.85,NNW,338,1.8,5.4,59,0.00,,,0.04,WUHU216HW,2013-04-11 23:55:00,
2013-04-11 18:00:00,47.2,33.6,29.85,ESE,113,0.4,3.4,59,0.00,,,0.04,WUHU216HW,2013-04-12 00:00:00,
2013-04-11 18:05:00,46.8,33.2,29.85,SSE,158,1.6,2.9,59,0.00,,,0.04,WUHU216HW,2013-04-12 00:05:00,
2013-04-11 18:10:00,46.4,32.9,29.85,North,0,0.0,2.2,59,0.00,,,0.04,WUHU216HW,2013-04-12 00:10:00,
2013-04-11 18:15:00,46.4,33.3,29.86,WSW,248,0.7,2.0,60,0.00,,,0.04,WUHU216HW,2013-04-12 00:15:00,
2013-04-11 18:20:00,46.4,33.3,29.85,SE,135,1.1,2.0,60,0.00,,,0.04,WUHU216HW,2013-04-12 00:20:00,
2013-04-11 18:25:00,46.4,33.3,29.86,NNW,338,0.7,1.3,60,0.00,,,0.04,WUHU216HW,2013-04-12 00:25:00,
2013-04-11 18:30:00,46.6,33.5,29.86,SSE,158,0.9,2.0,60,0.00,,,0.04,WUHU216HW,2013-04-12 00:30:00,
2013-04-11 18:35:00,46.4,33.3,29.86,SSE,158,1.1,2.0,60,0.00,,,0.04,WUHU216HW,2013-04-12 00:35:00,
2013-04-11 18:40:00,45.9,33.2,29.86,NW,315,0.2,5.4,61,0.00,,,0.04,WUHU216HW,2013-04-12 00:40:00,
2013-04-11 18:45:00,45.7,33.0,29.86,SW,225,3.4,5.4,61,0.00,,,0.04,WUHU216HW,2013-04-12 00:45:00,
2013-04-11 18:50:00,45.7,33.0,29.86,South,180,3.1,3.4,61,0.00,,,0.04,WUHU216HW,2013-04-12 00:50:00,
2013-04-11 18:55:00,45.7,33.4,29.86,SSE,158,1.6,3.1,62,0.00,,,0.04,WUHU216HW,2013-04-12 00:55:00,
2013-04-11 19:00:00,45.4,33.1,29.86,SE,135,2.2,2.5,62,0.00,,,0.04,WUHU216HW,2013-04-12 01:00:00,
2013-04-11 19:05:00,45.2,33.0,29.86,South,180,0.9,2.5,62,0.00,,,0.04,WUHU216HW,2013-04-12 01:05:00,
2013-04-11 19:10:00,45.0,32.8,29.86,SSE,158,0.0,1.8,62,0.00,,,0.04,WUHU216HW,2013-04-12 01:10:00,
2013-04-11 19:15:00,44.8,32.6,29.86,SSE,158,0.0,0.4,62,0.00,,,0.04,WUHU216HW,2013-04-12 01:15:00,
2013-04-11 19:20:00,44.6,32.4,29.86,SSE,158,0.0,0.4,62,0.00,,,0.04,WUHU216HW,2013-04-12 01:20:00,
2013-04-11 19:25:00,44.3,32.5,29.86,SW,225,0.4,1.1,63,0.00,,,0.04,WUHU216HW,2013-04-12 01:25:00,
2013-04-11 19:30:00,43.7,32.0,29.86,SSE,158,2.5,2.5,63,0.00,,,0.04,WUHU216HW,2013-04-12 01:30:00,
2013-04-11 19:35:00,43.4,32.0,29.86,WSW,248,1.6,2.5,64,0.00,,,0.04,WUHU216HW,2013-04-12 01:35:00,
2013-04-11 19:40:00,42.8,31.9,29.87,WSW,248,0.9,1.8,65,0.00,,,0.04,WUHU216HW,2013-04-12 01:40:00,
2013-04-11 19:45:00,42.3,31.3,29.87,WSW,248,0.4,1.3,65,0.00,,,0.04,WUHU216HW,2013-04-12 01:45:00,
2013-04-11 19:50:00,42.1,31.1,29.87,SW,225,0.0,0.4,65,0.00,,,0.04,WUHU216HW,2013-04-12 01:50:00,
2013-04-11 19:55:00,41.8,30.9,29.87,SW,225,0.0,0.4,65,0.00,,,0.04,WUHU216HW,2013-04-12 01:55:00,
2013-04-11 20:00:00,41.4,30.5,29.87,SSW,203,0.0,0.4,65,0.00,,,0.04,WUHU216HW,2013-04-12 02:00:00,
2013-04-11 20:05:00,41.0,30.5,29.87,WSW,248,0.0,0.4,66,0.00,,,0.04,WUHU216HW,2013-04-12 02:05:00,
2013-04-11 20:10:00,40.5,30.0,29.87,SSE,158,2.0,2.5,66,0.00,,,0.04,WUHU216HW,2013-04-12 02:10:00,
2013-04-11 20:15:00,40.0,29.8,29.88,West,270,2.0,2.5,67,0.00,,,0.04,WUHU216HW,2013-04-12 02:15:00,
2013-04-11 20:20:00,39.6,29.1,29.88,SSE,158,0.4,2.0,66,0.00,,,0.04,WUHU216HW,2013-04-12 02:20:00,
2013-04-11 20:25:00,39.2,29.1,29.88,West,270,2.2,2.2,67,0.00,,,0.04,WUHU216HW,2013-04-12 02:25:00,
2013-04-11 20:30:00,38.7,29.8,29.88,SSE,158,1.8,2.2,70,0.00,,,0.04,WUHU216HW,2013-04-12 02:30:00,
2013-04-11 20:35:00,38.5,29.6,29.89,West,270,0.0,1.8,70,0.00,,,0.04,WUHU216HW,2013-04-12 02:35:00,
2013-04-11 20:40:00,38.5,30.0,29.89,SW,225,1.1,1.6,71,0.00,,,0.04,WUHU216HW,2013-04-12 02:40:00,
2013-04-11 20:45:00,38.3,30.1,29.89,WSW,248,1.8,1.8,72,0.00,,,0.04,WUHU216HW,2013-04-12 02:45:00,
2013-04-11 20:50:00,38.2,30.0,29.89,SSW,203,0.9,1.8,72,0.00,,,0.04,WUHU216HW,2013-04-12 02:50:00,
2013-04-11 20:55:00,38.2,30.0,29.89,WSW,248,1.8,1.8,72,0.00,,,0.04,WUHU216HW,2013-04-12 02:55:00,
2013-04-11 21:00:00,38.0,30.4,29.89,WSW,248,1.1,2.0,74,0.00,,,0.04,WUHU216HW,2013-04-12 03:00:00,
2013-04-11 21:05:00,37.8,30.2,29.90,WSW,248,2.0,2.0,74,0.00,,,0.04,WUHU216HW,2013-04-12 03:05:00,
2013-04-11 21:10:00,37.4,29.9,29.90,SW,225,0.4,2.0,74,0.00,,,0.04,WUHU216HW,2013-04-12 03:10:00,
2013-04-11 21:15:00,37.3,30.1,29.90,WSW,248,1.6,1.6,75,0.00,,,0.04,WUHU216HW,2013-04-12 03:15:00,
2013-04-11 21:20:00,37.1,30.5,29.90,West,270,2.5,3.4,77,0.00,,,0.04,WUHU216HW,2013-04-12 03:20:00,
2013-04-11 21:25:00,36.7,30.2,29.91,WSW,248,1.3,3.4,77,0.00,,,0.04,WUHU216HW,2013-04-12 03:25:00,
2013-04-11 21:30:00,36.5,29.7,29.91,WSW,248,1.3,1.3,76,0.00,,,0.04,WUHU216HW,2013-04-12 03:30:00,
2013-04-11 21:35:00,36.4,29.5,29.91,SW,225,0.9,1.6,76,0.00,,,0.04,WUHU216HW,2013-04-12 03:35:00,
2013-04-11 21:40:00,36.4,29.8,29.91,WSW,248,0.7,2.5,77,0.00,,,0.04,WUHU216HW,2013-04-12 03:40:00,
2013-04-11 21:45:00,36.4,29.5,29.91,SSW,203,0.2,2.5,76,0.00,,,0.04,WUHU216HW,2013-04-12 03:45:00,
2013-04-11 21:50:00,36.7,29.9,29.91,SW,225,0.0,1.3,76,0.00,,,0.04,WUHU216HW,2013-04-12 03:50:00,
2013-04-11 21:55:00,36.9,30.1,29.91,SW,225,0.4,1.1,76,0.00,,,0.04,WUHU216HW,2013-04-12 03:55:00,
2013-04-11 22:00:00,37.1,30.3,29.92,SW,225,0.2,1.1,76,0.00,,,0.04,WUHU216HW,2013-04-12 04:00:00,
2013-04-11 22:05:00,37.4,30.6,29.92,West,270,1.3,1.3,76,0.00,,,0.04,WUHU216HW,2013-04-12 04:05:00,
2013-04-11 22:10:00,37.6,30.8,29.92,WSW,248,1.1,1.3,76,0.00,,,0.04,WUHU216HW,2013-04-12 04:10:00,
2013-04-11 22:15:00,37.8,30.9,29.91,WSW,248,1.3,1.3,76,0.00,,,0.04,WUHU216HW,2013-04-12 04:15:00,
2013-04-11 22:20:00,37.8,31.2,29.92,West,270,2.9,2.9,77,0.00,,,0.04,WUHU216HW,2013-04-12 04:20:00,
2013-04-11 22:25:00,37.6,30.8,29.92,WSW,248,0.0,2.9,76,0.00,,,0.04,WUHU216HW,2013-04-12 04:25:00,
2013-04-11 22:30:00,37.6,31.1,29.92,WSW,248,0.2,1.3,77,0.00,,,0.04,WUHU216HW,2013-04-12 04:30:00,
2013-04-11 22:35:00,37.6,31.1,29.92,SSW,203,0.0,0.9,77,0.00,,,0.04,WUHU216HW,2013-04-12 04:35:00,
2013-04-11 22:40:00,37.8,30.9,29.92,ESE,113,0.0,0.0,76,0.00,,,0.04,WUHU216HW,2013-04-12 04:40:00,
2013-04-11 22:45:00,37.6,31.1,29.92,East,90,0.4,0.7,77,0.00,,,0.04,WUHU216HW,2013-04-12 04:45:00,
2013-04-11 22:50:00,37.8,31.2,29.92,NW,315,0.0,0.7,77,0.00,,,0.04,WUHU216HW,2013-04-12 04:50:00,
2013-04-11 22:55:00,37.8,31.2,29.92,West,270,1.1,1.1,77,0.00,,,0.04,WUHU216HW,2013-04-12 04:55:00,
2013-04-11 23:00:00,37.8,31.2,29.92,WSW,248,0.0,1.1,77,0.00,,,0.04,WUHU216HW,2013-04-12 05:00:00,
2013-04-11 23:05:00,37.8,30.9,29.92,SSE,158,0.0,0.7,76,0.00,,,0.04,WUHU216HW,2013-04-12 05:05:00,
2013-04-11 23:10:00,37.8,31.2,29.92,SW,225,0.4,0.7,77,0.00,,,0.04,WUHU216HW,2013-04-12 05:10:00,
2013-04-11 23:15:00,37.8,31.2,29.92,WSW,248,0.0,1.1,77,0.00,,,0.04,WUHU216HW,2013-04-12 05:15:00,
2013-04-11 23:20:00,38.0,31.4,29.92,WSW,248,0.4,1.1,77,0.00,,,0.04,WUHU216HW,2013-04-12 05:20:00,
2013-04-11 23:25:00,38.0,31.4,29.92,SSW,203,0.0,0.4,77,0.00,,,0.04,WUHU216HW,2013-04-12 05:25:00,
2013-04-11 23:30:00,38.2,31.6,29.92,WSW,248,0.0,1.3,77,0.00,,,0.04,WUHU216HW,2013-04-12 05:30:00,
2013-04-11 23:35:00,38.2,31.6,29.92,SSE,158,0.0,1.3,77,0.00,,,0.04,WUHU216HW,2013-04-12 05:35:00,
2013-04-11 23:40:00,38.3,31.4,29.92,South,180,0.0,0.2,76,0.00,,,0.04,WUHU216HW,2013-04-12 05:40:00,
2013-04-11 23:45:00,38.3,31.4,29.92,WSW,248,0.0,0.0,76,0.00,,,0.04,WUHU216HW,2013-04-12 05:45:00,
2013-04-11 23:50:00,38.3,31.4,29.92,NNW,338,0.0,0.2,76,0.00,,,0.04,WUHU216HW,2013-04-12 05:50:00,
2013-04-11 23:55:00,38.2,31.2,29.92,West,270,1.3,1.3,76,0.00,,,0.04,WUHU216HW,2013-04-12 05:55:00,